Time;durP1;ratioP1;P1;durP2;ratioP2;P2;SDS_P1;SDS_P2;PMS_P1;PMS_P2;Temp;Humidity;BMP_temperature;BMP_pressure;BME280_temperature;BME280_humidity;BME280_pressure;Samples;Min_cycle;Max_cycle;Signal;HPM_P1;HPM_P2
2021/03/12 00:01:11;;;;;;;11.90;8.32;;;;;;;;;;5027445;28;20053;-78
2021/03/12 00:03:38;;;;;;;7.00;6.63;;;;;;;;;;5023054;28;20033;-78
2021/03/12 00:06:07;;;;;;;10.35;6.93;;;;;;;;;;5032338;28;20677;-78
2021/03/12 00:08:36;;;;;;;9.32;7.15;;;;;;;;;;5047532;28;20121;-78
2021/03/12 00:11:04;;;;;;;7.88;7.40;;;;;;;;;;5050068;28;20486;-78
2021/03/12 00:13:30;;;;;;;8.52;7.85;;;;;;;;;;5045659;28;20037;-78
2021/03/12 00:15:58;;;;;;;9.18;6.65;;;;;;;;;;5038408;28;20080;-78
2021/03/12 00:18:35;;;;;;;7.93;7.15;;;;;;;;;;5052339;28;20040;-78
2021/03/12 00:21:02;;;;;;;8.82;6.93;;;;;;;;;;5043232;28;20037;-78
2021/03/12 00:23:29;;;;;;;7.97;6.70;;;;;;;;;;5018068;28;20059;-78
2021/03/12 00:25:56;;;;;;;7.47;6.70;;;;;;;;;;5034793;28;20090;-78
2021/03/12 00:28:23;;;;;;;6.20;5.80;;;;;;;;;;5047682;28;20044;-78
2021/03/12 00:30:50;;;;;;;7.43;7.13;;;;;;;;;;5032443;28;20049;-78
2021/03/12 00:33:18;;;;;;;7.90;7.28;;;;;;;;;;5047281;28;20124;-78
2021/03/12 00:35:46;;;;;;;7.05;6.25;;;;;;;;;;5025730;28;20033;-78
2021/03/12 00:38:14;;;;;;;9.98;7.25;;;;;;;;;;5030231;28;20084;-78
2021/03/12 00:40:42;;;;;;;12.05;8.02;;;;;;;;;;5031242;28;20111;-78
2021/03/12 00:43:10;;;;;;;10.73;7.18;;;;;;;;;;5016275;28;20119;-78
2021/03/12 00:45:38;;;;;;;12.63;9.13;;;;;;;;;;5046683;28;20474;-78
2021/03/12 00:48:06;;;;;;;8.35;7.55;;;;;;;;;;5014920;28;20045;-78
2021/03/12 00:50:35;;;;;;;7.22;6.50;;;;;;;;;;5050224;28;20390;-78
2021/03/12 00:53:02;;;;;;;6.70;6.20;;;;;;;;;;5044230;28;20645;-78
2021/03/12 00:55:29;;;;;;;7.75;7.00;;;;;;;;;;5034898;28;20060;-78
2021/03/12 00:57:57;;;;;;;7.93;7.28;;;;;;;;;;5030039;28;20037;-78
2021/03/12 01:00:24;;;;;;;8.35;7.57;;;;;;;;;;5025342;28;20076;-78
2021/03/12 01:02:52;;;;;;;7.63;6.90;;;;;;;;;;5052139;28;20486;-78
2021/03/12 01:05:19;;;;;;;6.15;5.65;;;;;;;;;;5028045;28;20482;-78
2021/03/12 01:07:47;;;;;;;8.10;6.88;;;;;;;;;;5042879;28;20044;-78
2021/03/12 01:10:14;;;;;;;7.47;5.93;;;;;;;;;;5046456;28;20565;-78
2021/03/12 01:12:42;;;;;;;10.35;6.63;;;;;;;;;;5030039;28;20037;-78
2021/03/12 01:15:10;;;;;;;6.65;6.20;;;;;;;;;;5034011;28;20141;-78
2021/03/12 01:17:38;;;;;;;7.88;7.18;;;;;;;;;;5025337;28;20044;-78
2021/03/12 01:20:09;;;;;;;8.75;5.75;;;;;;;;;;5032587;28;20486;-78
2021/03/12 01:22:37;;;;;;;7.32;6.32;;;;;;;;;;5034305;28;20106;-78
2021/03/12 01:25:15;;;;;;;15.63;7.78;;;;;;;;;;5046863;28;20063;-78
2021/03/12 01:27:42;;;;;;;7.50;6.55;;;;;;;;;;5050173;28;20405;-78
2021/03/12 01:30:20;;;;;;;6.30;5.57;;;;;;;;;;5026235;28;20041;-78
2021/03/12 01:32:48;;;;;;;6.10;5.75;;;;;;;;;;5039554;28;20091;-78
2021/03/12 01:35:15;;;;;;;7.70;6.18;;;;;;;;;;5027420;28;20041;-78
2021/03/12 01:37:43;;;;;;;5.70;5.30;;;;;;;;;;5015818;28;20057;-78
2021/03/12 01:40:12;;;;;;;6.43;5.82;;;;;;;;;;5033983;28;20045;-78
2021/03/12 01:42:50;;;;;;;7.47;6.75;;;;;;;;;;5049093;28;20102;-78
2021/03/12 01:45:20;;;;;;;6.65;5.88;;;;;;;;;;5046061;28;20046;-78
2021/03/12 01:47:48;;;;;;;8.63;6.22;;;;;;;;;;5051686;28;20591;-78
2021/03/12 01:50:15;;;;;;;10.48;6.07;;;;;;;;;;5031546;28;20458;-78
2021/03/12 01:52:43;;;;;;;9.23;6.07;;;;;;;;;;5013910;28;20067;-78
2021/03/12 01:55:14;;;;;;;7.30;6.22;;;;;;;;;;5031386;28;20052;-78
2021/03/12 01:57:42;;;;;;;6.90;6.50;;;;;;;;;;5026646;28;20033;-78
2021/03/12 02:00:10;;;;;;;6.80;6.30;;;;;;;;;;5032067;28;20136;-78
2021/03/12 02:02:38;;;;;;;9.73;7.05;;;;;;;;;;5032088;28;20052;-78
2021/03/12 02:05:05;;;;;;;6.25;5.82;;;;;;;;;;5028980;28;20073;-78
2021/03/12 02:07:32;;;;;;;14.07;6.13;;;;;;;;;;5032236;28;20040;-78
2021/03/12 02:09:59;;;;;;;6.97;5.95;;;;;;;;;;5043756;28;20458;-78
2021/03/12 02:12:46;;;;;;;6.55;5.93;;;;;;;;;;5030886;28;20069;-78
2021/03/12 02:15:20;;;;;;;9.15;6.90;;;;;;;;;;5047666;28;20045;-78
2021/03/12 02:18:16;;;;;;;5.90;5.50;;;;;;;;;;5013608;28;20045;-78
2021/03/12 02:20:54;;;;;;;8.93;5.75;;;;;;;;;;5009621;28;20077;-78
2021/03/12 02:23:33;;;;;;;9.55;6.45;;;;;;;;;;5031443;28;20112;-78
2021/03/12 02:26:06;;;;;;;6.72;6.32;;;;;;;;;;5014419;28;20499;-78
2021/03/12 02:28:34;;;;;;;5.97;5.43;;;;;;;;;;5031264;28;20123;-78
2021/03/12 02:31:02;;;;;;;5.43;5.13;;;;;;;;;;5048167;28;20099;-78
2021/03/12 02:33:30;;;;;;;5.25;4.90;;;;;;;;;;5046824;28;20037;-78
2021/03/12 02:35:57;;;;;;;6.70;6.15;;;;;;;;;;5030709;28;20045;-78
2021/03/12 02:38:26;;;;;;;6.35;5.82;;;;;;;;;;5044734;28;20107;-78
2021/03/12 02:40:55;;;;;;;6.45;6.00;;;;;;;;;;5031976;28;21606;-78
2021/03/12 02:43:34;;;;;;;5.63;5.38;;;;;;;;;;5047285;28;20037;-78
2021/03/12 02:46:01;;;;;;;5.70;5.40;;;;;;;;;;5027133;28;20042;-78
2021/03/12 02:48:28;;;;;;;8.32;6.22;;;;;;;;;;5032923;28;20102;-78
2021/03/12 02:50:55;;;;;;;7.20;6.40;;;;;;;;;;5044159;28;20025;-78
2021/03/12 02:53:23;;;;;;;8.20;6.47;;;;;;;;;;5045364;28;20041;-78
2021/03/12 02:55:50;;;;;;;6.60;5.95;;;;;;;;;;5048208;28;20051;-78
2021/03/12 02:58:18;;;;;;;5.18;5.03;;;;;;;;;;5044295;28;20044;-78
2021/03/12 03:00:44;;;;;;;6.47;5.18;;;;;;;;;;5015291;28;20044;-78
2021/03/12 03:03:12;;;;;;;12.30;6.03;;;;;;;;;;5028685;28;20068;-78
2021/03/12 03:05:39;;;;;;;6.70;5.85;;;;;;;;;;5028736;28;20128;-78
2021/03/12 03:08:06;;;;;;;6.38;5.72;;;;;;;;;;5056399;28;20406;-78
2021/03/12 03:10:34;;;;;;;5.60;5.30;;;;;;;;;;5047477;28;20037;-78
2021/03/12 03:13:01;;;;;;;6.60;6.00;;;;;;;;;;5053308;28;20052;-78
2021/03/12 03:15:28;;;;;;;6.72;5.68;;;;;;;;;;5034946;28;20041;-78
2021/03/12 03:17:56;;;;;;;6.30;5.78;;;;;;;;;;5031945;28;20044;-78
2021/03/12 03:20:24;;;;;;;5.57;5.22;;;;;;;;;;5037214;28;20044;-78
2021/03/12 03:22:51;;;;;;;5.70;5.25;;;;;;;;;;5051189;28;20882;-78
2021/03/12 03:25:19;;;;;;;6.43;5.55;;;;;;;;;;5037714;28;20053;-78
2021/03/12 03:27:46;;;;;;;5.15;4.85;;;;;;;;;;5051494;28;20056;-78
2021/03/12 03:30:14;;;;;;;6.20;5.82;;;;;;;;;;5051508;28;20466;-78
2021/03/12 03:32:41;;;;;;;5.13;4.90;;;;;;;;;;5038450;28;20045;-78
2021/03/12 03:35:10;;;;;;;6.15;5.55;;;;;;;;;;5032600;28;20056;-78
2021/03/12 03:37:37;;;;;;;6.78;5.47;;;;;;;;;;5052798;28;20053;-78
2021/03/12 03:40:09;;;;;;;9.65;6.07;;;;;;;;;;5037007;28;20654;-78
2021/03/12 03:42:36;;;;;;;6.07;4.85;;;;;;;;;;5019372;28;20037;-78
2021/03/12 03:45:05;;;;;;;13.00;6.35;;;;;;;;;;5055274;28;20823;-78
2021/03/12 03:47:33;;;;;;;9.77;5.85;;;;;;;;;;5051405;28;20056;-78
2021/03/12 03:50:01;;;;;;;6.47;5.57;;;;;;;;;;5034293;28;20045;-78
2021/03/12 03:52:28;;;;;;;11.93;5.68;;;;;;;;;;5037838;28;20041;-78
2021/03/12 03:54:57;;;;;;;6.25;5.57;;;;;;;;;;5050664;28;20482;-78
2021/03/12 03:57:29;;;;;;;5.88;5.38;;;;;;;;;;5019695;28;20112;-78
2021/03/12 03:59:59;;;;;;;5.18;4.75;;;;;;;;;;5050934;28;20473;-78
2021/03/12 04:02:26;;;;;;;5.65;5.32;;;;;;;;;;5050432;28;20033;-78
2021/03/12 04:04:54;;;;;;;10.88;5.95;;;;;;;;;;5038325;28;20155;-78
2021/03/12 04:07:22;;;;;;;6.18;5.63;;;;;;;;;;5051603;28;20063;-78
2021/03/12 04:09:50;;;;;;;7.90;5.88;;;;;;;;;;5052817;28;20042;-78
2021/03/12 04:12:18;;;;;;;8.73;5.60;;;;;;;;;;5053574;28;20067;-78
2021/03/12 04:14:46;;;;;;;6.43;5.78;;;;;;;;;;5045314;28;20045;-78
2021/03/12 04:17:14;;;;;;;5.85;5.38;;;;;;;;;;5052794;28;20049;-78
2021/03/12 04:19:43;;;;;;;8.00;6.10;;;;;;;;;;5043853;28;20046;-78
2021/03/12 04:22:10;;;;;;;5.57;4.50;;;;;;;;;;5031242;28;20437;-78
2021/03/12 04:24:38;;;;;;;6.85;4.53;;;;;;;;;;5033426;28;20623;-78
2021/03/12 04:27:05;;;;;;;8.93;5.25;;;;;;;;;;5028911;28;20103;-78
2021/03/12 04:29:33;;;;;;;7.38;6.22;;;;;;;;;;5051774;28;20037;-78
2021/03/12 04:32:00;;;;;;;7.22;6.28;;;;;;;;;;5049413;28;20072;-78
2021/03/12 04:34:27;;;;;;;7.47;6.18;;;;;;;;;;5046991;28;20049;-78
2021/03/12 04:36:55;;;;;;;7.60;6.88;;;;;;;;;;5034433;28;20055;-78
2021/03/12 04:39:22;;;;;;;9.15;6.25;;;;;;;;;;5046168;28;20095;-78
2021/03/12 04:41:49;;;;;;;9.50;6.30;;;;;;;;;;5032696;28;20476;-78
2021/03/12 04:44:17;;;;;;;10.57;6.32;;;;;;;;;;5029440;28;20102;-78
2021/03/12 04:46:44;;;;;;;9.70;6.55;;;;;;;;;;5048497;28;20506;-78
2021/03/12 04:49:11;;;;;;;7.07;6.07;;;;;;;;;;5017388;28;20041;-78
2021/03/12 04:51:38;;;;;;;8.43;7.65;;;;;;;;;;5024486;28;20517;-78
2021/03/12 04:54:09;;;;;;;10.18;5.30;;;;;;;;;;5045321;28;20116;-78
2021/03/12 04:56:37;;;;;;;7.20;6.10;;;;;;;;;;5030537;28;20087;-78
2021/03/12 04:59:05;;;;;;;8.48;5.18;;;;;;;;;;5044903;28;20044;-78
2021/03/12 05:01:34;;;;;;;14.57;7.57;;;;;;;;;;5052233;28;20458;-78
2021/03/12 05:04:05;;;;;;;7.93;5.30;;;;;;;;;;5027987;28;20501;-78
2021/03/12 05:06:37;;;;;;;7.88;5.53;;;;;;;;;;5038260;28;20045;-78
2021/03/12 05:09:04;;;;;;;9.98;7.45;;;;;;;;;;5032347;28;20048;-78
2021/03/12 05:11:31;;;;;;;8.07;6.45;;;;;;;;;;5044894;28;20099;-78
2021/03/12 05:13:58;;;;;;;7.05;6.28;;;;;;;;;;5046887;28;20196;-78
2021/03/12 05:16:25;;;;;;;9.80;6.05;;;;;;;;;;5029143;28;20036;-78
2021/03/12 05:18:52;;;;;;;8.82;6.57;;;;;;;;;;5045599;28;20052;-78
2021/03/12 05:21:19;;;;;;;10.43;7.57;;;;;;;;;;5013960;28;20053;-78
2021/03/12 05:23:46;;;;;;;10.63;7.38;;;;;;;;;;5029764;28;20041;-78
2021/03/12 05:26:14;;;;;;;13.18;7.15;;;;;;;;;;5050478;28;20051;-78
2021/03/12 05:28:40;;;;;;;13.20;6.30;;;;;;;;;;5013230;28;20417;-78
2021/03/12 05:31:08;;;;;;;5.63;5.25;;;;;;;;;;5028124;28;20568;-78
2021/03/12 05:33:35;;;;;;;13.75;6.78;;;;;;;;;;5023263;28;20041;-78
2021/03/12 05:36:02;;;;;;;7.97;6.45;;;;;;;;;;5024638;28;20068;-78
2021/03/12 05:38:28;;;;;;;11.05;6.32;;;;;;;;;;5018765;28;20036;-78
2021/03/12 05:40:55;;;;;;;7.07;6.50;;;;;;;;;;5040120;28;20053;-78
2021/03/12 05:43:23;;;;;;;7.15;6.55;;;;;;;;;;5044067;28;20037;-78
2021/03/12 05:45:52;;;;;;;8.13;6.63;;;;;;;;;;5032635;28;20135;-78
2021/03/12 05:48:20;;;;;;;8.95;6.25;;;;;;;;;;5036505;28;20047;-78
2021/03/12 05:50:47;;;;;;;8.02;6.43;;;;;;;;;;5037269;28;20106;-78
2021/03/12 05:53:14;;;;;;;11.70;6.00;;;;;;;;;;5047596;28;20784;-78
2021/03/12 05:55:41;;;;;;;6.88;6.28;;;;;;;;;;5010035;28;20148;-78
2021/03/12 05:58:08;;;;;;;8.05;6.13;;;;;;;;;;5040859;28;20041;-78
2021/03/12 06:00:35;;;;;;;6.93;5.25;;;;;;;;;;5027697;28;20129;-78
2021/03/12 06:03:02;;;;;;;11.43;6.07;;;;;;;;;;5019782;28;20045;-78
2021/03/12 06:05:29;;;;;;;9.35;6.40;;;;;;;;;;5015527;28;20128;-78
2021/03/12 06:07:56;;;;;;;7.85;5.30;;;;;;;;;;5023687;28;20044;-78
2021/03/12 06:10:23;;;;;;;6.90;6.50;;;;;;;;;;5048444;28;20040;-78
2021/03/12 06:12:55;;;;;;;11.27;5.78;;;;;;;;;;5046148;28;20179;-78
2021/03/12 06:15:35;;;;;;;7.22;6.43;;;;;;;;;;5043735;28;20052;-78
2021/03/12 06:18:15;;;;;;;9.82;6.78;;;;;;;;;;5045789;28;20394;-78
2021/03/12 06:20:42;;;;;;;7.53;6.85;;;;;;;;;;5025655;28;20052;-78
2021/03/12 06:23:09;;;;;;;8.38;7.55;;;;;;;;;;5026245;28;20030;-78
2021/03/12 06:25:36;;;;;;;13.32;6.47;;;;;;;;;;5029426;28;20099;-78
2021/03/12 06:28:14;;;;;;;8.35;6.80;;;;;;;;;;5039669;28;20098;-80
2021/03/12 06:30:41;;;;;;;6.40;5.85;;;;;;;;;;5027695;28;20022;-80
2021/03/12 06:33:08;;;;;;;8.57;6.10;;;;;;;;;;5024164;28;20061;-80
2021/03/12 06:35:36;;;;;;;9.10;6.38;;;;;;;;;;5038607;28;20493;-80
2021/03/12 06:38:07;;;;;;;7.43;6.82;;;;;;;;;;5013335;28;20445;-80
2021/03/12 06:40:37;;;;;;;7.18;6.47;;;;;;;;;;5027849;28;20095;-80
2021/03/12 06:43:11;;;;;;;7.22;6.60;;;;;;;;;;5021884;28;20433;-80
2021/03/12 06:45:40;;;;;;;8.68;6.43;;;;;;;;;;5041494;28;20118;-80
2021/03/12 06:48:15;;;;;;;7.22;5.70;;;;;;;;;;5026588;28;20086;-80
2021/03/12 06:50:46;;;;;;;7.90;5.82;;;;;;;;;;5029393;28;20498;-80
2021/03/12 06:53:20;;;;;;;7.68;7.13;;;;;;;;;;5047176;28;20044;-80
2021/03/12 06:55:47;;;;;;;10.88;6.60;;;;;;;;;;5043210;28;20045;-80
2021/03/12 06:58:14;;;;;;;8.25;7.57;;;;;;;;;;5030509;28;20099;-80
2021/03/12 07:00:41;;;;;;;6.38;5.88;;;;;;;;;;5038746;28;20068;-80
2021/03/12 07:03:37;;;;;;;9.02;6.47;;;;;;;;;;5029782;28;20072;-80
2021/03/12 07:06:05;;;;;;;8.65;6.40;;;;;;;;;;4933537;29;20055;-80
2021/03/12 07:08:31;;;;;;;7.03;6.28;;;;;;;;;;4946865;28;20493;-80
2021/03/12 07:10:58;;;;;;;7.45;6.82;;;;;;;;;;4948688;28;20510;-80
2021/03/12 07:13:26;;;;;;;10.25;6.28;;;;;;;;;;4959846;28;20047;-80
2021/03/12 07:15:55;;;;;;;6.82;6.15;;;;;;;;;;4940570;29;20110;-80
2021/03/12 07:18:23;;;;;;;13.05;6.63;;;;;;;;;;4935506;28;20059;-80
2021/03/12 07:20:50;;;;;;;7.00;6.50;;;;;;;;;;4946324;28;20559;-80
2021/03/12 07:23:18;;;;;;;6.75;6.53;;;;;;;;;;4947505;29;20114;-80
2021/03/12 07:25:46;;;;;;;6.80;6.32;;;;;;;;;;4949634;28;20094;-80
2021/03/12 07:28:16;;;;;;;5.82;5.50;;;;;;;;;;4947843;28;20043;-80
2021/03/12 07:30:44;;;;;;;7.65;6.88;;;;;;;;;;4940097;29;20055;-81
2021/03/12 07:33:11;;;;;;;5.72;5.07;;;;;;;;;;4933584;29;20070;-81
2021/03/12 07:35:38;;;;;;;7.00;6.40;;;;;;;;;;4941568;29;20537;-81
2021/03/12 07:38:07;;;;;;;5.18;4.78;;;;;;;;;;4954239;28;20047;-81
2021/03/12 07:40:34;;;;;;;6.65;5.35;;;;;;;;;;4934807;29;20054;-81
2021/03/12 07:43:01;;;;;;;7.80;5.45;;;;;;;;;;5005192;28;20354;-81
2021/03/12 07:45:28;;;;;;;6.10;5.22;;;;;;;;;;5020026;28;20625;-81
2021/03/12 07:47:55;;;;;;;11.85;5.72;;;;;;;;;;5029143;28;20030;-81
2021/03/12 07:50:28;;;;;;;5.60;4.88;;;;;;;;;;5013931;28;20042;-81
2021/03/12 07:52:55;;;;;;;5.47;5.03;;;;;;;;;;5006353;28;20384;-81
2021/03/12 07:55:37;;;;;;;5.75;4.15;;;;;;;;;;5016521;28;20458;-81
2021/03/12 07:58:10;;;;;;;8.13;6.35;;;;;;;;;;5029651;28;20037;-81
2021/03/12 08:00:52;;;;;;;16.75;10.20;;;;;;;;;;5011991;28;20494;-81
2021/03/12 08:03:39;;;;;;;13.20;9.57;;;;;;;;;;5029514;28;20045;-81
2021/03/12 08:06:21;;;;;;;7.10;6.40;;;;;;;;;;5027227;28;20111;-81
2021/03/12 08:08:49;;;;;;;5.53;5.07;;;;;;;;;;5008982;28;20049;-81
2021/03/12 08:11:19;;;;;;;10.20;5.63;;;;;;;;;;4998798;28;20029;-81
2021/03/12 08:13:46;;;;;;;5.15;4.72;;;;;;;;;;5028918;28;20199;-81
2021/03/12 08:16:13;;;;;;;5.30;4.95;;;;;;;;;;5030403;28;20473;-81
2021/03/12 08:18:41;;;;;;;4.85;4.55;;;;;;;;;;5053099;28;20064;-81
2021/03/12 08:21:32;;;;;;;4.43;3.72;;;;;;;;;;5044760;28;20482;-81
2021/03/12 08:23:59;;;;;;;4.55;4.22;;;;;;;;;;5039247;28;20040;-81
2021/03/12 08:26:45;;;;;;;4.22;3.72;;;;;;;;;;5035817;28;20068;-81
2021/03/12 08:29:38;;;;;;;4.63;4.22;;;;;;;;;;5042160;28;20048;-81
2021/03/12 08:32:24;;;;;;;5.97;5.35;;;;;;;;;;5027505;28;20049;-81
2021/03/12 08:34:51;;;;;;;4.40;4.20;;;;;;;;;;5049630;28;20449;-81
2021/03/12 08:37:28;;;;;;;5.55;5.05;;;;;;;;;;5033654;28;20047;-80
2021/03/12 08:40:13;;;;;;;5.30;4.82;;;;;;;;;;5050947;28;20120;-80
2021/03/12 08:42:53;;;;;;;5.47;4.40;;;;;;;;;;5035438;28;20080;-80
2021/03/12 08:45:39;;;;;;;5.57;4.78;;;;;;;;;;5030966;28;20529;-80
2021/03/12 08:48:08;;;;;;;4.93;4.60;;;;;;;;;;5049452;28;20037;-80
2021/03/12 08:50:57;;;;;;;5.90;4.15;;;;;;;;;;5049090;28;20045;-80
2021/03/12 08:53:25;;;;;;;9.20;4.88;;;;;;;;;;5043520;28;20289;-80
2021/03/12 08:55:53;;;;;;;10.05;4.40;;;;;;;;;;5037694;28;20443;-80
2021/03/12 08:58:24;;;;;;;5.35;4.28;;;;;;;;;;5034145;28;20037;-81
2021/03/12 09:00:52;;;;;;;4.95;4.57;;;;;;;;;;5046106;28;20087;-81
2021/03/12 09:03:34;;;;;;;4.45;4.15;;;;;;;;;;5045292;28;20041;-81
2021/03/12 09:06:03;;;;;;;4.00;3.63;;;;;;;;;;5031726;28;20041;-81
2021/03/12 09:08:31;;;;;;;4.32;3.63;;;;;;;;;;5029234;28;20046;-81
2021/03/12 09:10:59;;;;;;;5.43;3.70;;;;;;;;;;5017190;28;20394;-81
2021/03/12 09:13:31;;;;;;;4.53;4.00;;;;;;;;;;5010885;28;20083;-81
2021/03/12 09:16:00;;;;;;;4.28;3.95;;;;;;;;;;5020948;28;20587;-81
2021/03/12 09:18:38;;;;;;;7.93;4.85;;;;;;;;;;5032280;28;20041;-81
2021/03/12 09:21:10;;;;;;;5.15;4.65;;;;;;;;;;5027958;28;20568;-81
2021/03/12 09:23:42;;;;;;;4.18;3.78;;;;;;;;;;5016141;28;20084;-81
2021/03/12 09:26:25;;;;;;;7.68;5.32;;;;;;;;;;5027603;28;20486;-81
2021/03/12 09:28:53;;;;;;;6.25;5.38;;;;;;;;;;5030285;28;20036;-81
2021/03/12 09:31:21;;;;;;;7.88;4.13;;;;;;;;;;5032131;28;20559;-81
2021/03/12 09:33:50;;;;;;;5.20;4.70;;;;;;;;;;5044686;28;20041;-81
2021/03/12 09:36:31;;;;;;;7.63;5.70;;;;;;;;;;5032144;28;20044;-81
2021/03/12 09:39:10;;;;;;;6.32;5.68;;;;;;;;;;5016188;28;20038;-81
2021/03/12 09:41:41;;;;;;;5.40;4.35;;;;;;;;;;5025062;28;20045;-81
2021/03/12 09:44:11;;;;;;;7.05;6.43;;;;;;;;;;5015601;28;20045;-81
2021/03/12 09:46:43;;;;;;;6.90;6.13;;;;;;;;;;5047031;28;20039;-81
2021/03/12 09:49:26;;;;;;;;;;;;;;;;;;5044811;28;20103;-81
2021/03/12 09:51:54;;;;;;;5.20;4.82;;;;;;;;;;5031963;28;20479;-81
2021/03/12 09:54:23;;;;;;;10.70;6.15;;;;;;;;;;5045724;28;20033;-81
2021/03/12 09:56:51;;;;;;;12.63;6.20;;;;;;;;;;5047411;28;20044;-80
2021/03/12 09:59:24;;;;;;;6.78;6.20;;;;;;;;;;5018278;28;20045;-80
2021/03/12 10:01:51;;;;;;;11.43;6.63;;;;;;;;;;5043366;28;20038;-80
2021/03/12 10:04:29;;;;;;;9.88;6.70;;;;;;;;;;5049064;28;20116;-80
2021/03/12 10:06:57;;;;;;;7.90;6.65;;;;;;;;;;5046763;28;20443;-80
2021/03/12 10:09:24;;;;;;;6.93;5.88;;;;;;;;;;5026228;28;20045;-80
2021/03/12 10:11:52;;;;;;;7.38;6.95;;;;;;;;;;5012819;28;20095;-80
2021/03/12 10:14:30;;;;;;;11.15;6.82;;;;;;;;;;5042815;28;20084;-80
2021/03/12 10:17:11;;;;;;;9.35;7.05;;;;;;;;;;5028698;28;20036;-80
2021/03/12 10:19:41;;;;;;;6.72;6.10;;;;;;;;;;5043689;28;20478;-80
2021/03/12 10:22:38;;;;;;;8.25;6.65;;;;;;;;;;5023795;28;20040;-80
2021/03/12 10:25:12;;;;;;;9.30;6.53;;;;;;;;;;4962417;28;20085;-81
2021/03/12 10:27:39;;;;;;;6.80;6.05;;;;;;;;;;4987735;28;20113;-81
2021/03/12 10:30:09;;;;;;;9.93;6.55;;;;;;;;;;4987349;28;20061;-81
2021/03/12 10:32:40;;;;;;;8.75;7.72;;;;;;;;;;4979072;28;20043;-81
2021/03/12 10:35:31;;;;;;;8.35;6.28;;;;;;;;;;4972871;28;20133;-81
2021/03/12 10:37:59;;;;;;;8.05;7.53;;;;;;;;;;4985339;28;20112;-81
2021/03/12 10:40:27;;;;;;;13.40;7.53;;;;;;;;;;4969454;28;20045;-81
2021/03/12 10:42:56;;;;;;;9.60;6.70;;;;;;;;;;4988558;28;20059;-81
2021/03/12 10:45:22;;;;;;;8.98;7.18;;;;;;;;;;4970878;28;20038;-81
2021/03/12 10:47:57;;;;;;;6.70;6.05;;;;;;;;;;4965369;28;20051;-81
2021/03/12 10:50:49;;;;;;;7.97;7.10;;;;;;;;;;4968362;28;20106;-81
2021/03/12 10:53:16;;;;;;;11.35;6.57;;;;;;;;;;4960737;28;20124;-81
2021/03/12 10:55:45;;;;;;;11.63;5.90;;;;;;;;;;4986797;28;20065;-81
2021/03/12 10:58:25;;;;;;;9.18;7.40;;;;;;;;;;4985224;28;20046;-81
2021/03/12 11:01:11;;;;;;;7.38;6.63;;;;;;;;;;4999859;28;20338;-81
2021/03/12 11:03:39;;;;;;;8.00;7.00;;;;;;;;;;5041561;28;20045;-81
2021/03/12 11:06:07;;;;;;;7.43;6.72;;;;;;;;;;5038744;28;20394;-81
2021/03/12 11:08:36;;;;;;;9.77;6.40;;;;;;;;;;5015783;28;20547;-81
2021/03/12 11:11:05;;;;;;;8.07;6.05;;;;;;;;;;5010533;28;20127;-81
2021/03/12 11:13:33;;;;;;;7.75;5.78;;;;;;;;;;5028088;28;20046;-81
2021/03/12 11:16:00;;;;;;;7.90;6.82;;;;;;;;;;5028826;28;20071;-81
2021/03/12 11:18:30;;;;;;;8.93;6.68;;;;;;;;;;5042931;28;20056;-81
2021/03/12 11:20:58;;;;;;;8.10;6.30;;;;;;;;;;5047243;28;20037;-81
2021/03/12 11:23:25;;;;;;;6.90;5.80;;;;;;;;;;5031429;28;20037;-81
2021/03/12 11:25:53;;;;;;;8.75;6.38;;;;;;;;;;5048316;28;20041;-81
2021/03/12 11:28:20;;;;;;;8.40;7.53;;;;;;;;;;5019018;28;20066;-81
2021/03/12 11:30:47;;;;;;;7.90;6.18;;;;;;;;;;5043853;28;20115;-81
2021/03/12 11:33:14;;;;;;;7.85;6.55;;;;;;;;;;5028016;28;20107;-81
2021/03/12 11:35:41;;;;;;;7.32;6.53;;;;;;;;;;5033202;28;20040;-81
2021/03/12 11:38:09;;;;;;;8.40;5.32;;;;;;;;;;5030172;28;20052;-81
2021/03/12 11:40:37;;;;;;;8.07;5.68;;;;;;;;;;5026073;28;20037;-81
2021/03/12 11:43:08;;;;;;;6.68;5.75;;;;;;;;;;5030724;28;20037;-81
2021/03/12 11:45:35;;;;;;;7.05;6.45;;;;;;;;;;5033510;28;20044;-81
2021/03/12 11:48:03;;;;;;;7.20;6.70;;;;;;;;;;5042185;28;20048;-81
2021/03/12 11:50:36;;;;;;;12.68;7.18;;;;;;;;;;5046598;28;20360;-81
2021/03/12 11:53:04;;;;;;;10.30;6.55;;;;;;;;;;5044822;28;20034;-81
2021/03/12 11:55:31;;;;;;;12.70;7.05;;;;;;;;;;5029989;28;20400;-81
2021/03/12 11:57:58;;;;;;;7.40;5.75;;;;;;;;;;5049621;28;20033;-81
2021/03/12 12:00:27;;;;;;;12.32;6.53;;;;;;;;;;5044615;28;20484;-81
2021/03/12 12:02:54;;;;;;;7.10;6.20;;;;;;;;;;5014141;28;20045;-81
2021/03/12 12:05:21;;;;;;;7.13;5.68;;;;;;;;;;5046417;28;20075;-81
2021/03/12 12:07:48;;;;;;;12.57;7.10;;;;;;;;;;5032868;28;20044;-81
2021/03/12 12:10:15;;;;;;;10.43;7.10;;;;;;;;;;5033734;28;20041;-81
2021/03/12 12:12:46;;;;;;;10.88;6.47;;;;;;;;;;5051738;28;20036;-81
2021/03/12 12:15:16;;;;;;;7.72;6.50;;;;;;;;;;5046483;28;20037;-81
2021/03/12 12:17:47;;;;;;;7.93;7.13;;;;;;;;;;5034410;28;20114;-80
2021/03/12 12:20:14;;;;;;;6.57;5.82;;;;;;;;;;5050297;28;20044;-81
2021/03/12 12:22:42;;;;;;;7.95;7.20;;;;;;;;;;5052571;28;20091;-81
2021/03/12 12:25:09;;;;;;;5.72;5.30;;;;;;;;;;5038934;28;20037;-81
2021/03/12 12:27:37;;;;;;;7.15;6.53;;;;;;;;;;5051001;28;20043;-81
2021/03/12 12:30:05;;;;;;;6.38;5.03;;;;;;;;;;5019874;28;20322;-81
2021/03/12 12:32:32;;;;;;;6.72;6.10;;;;;;;;;;5041852;28;20055;-81
2021/03/12 12:34:59;;;;;;;5.45;5.13;;;;;;;;;;5038466;28;20029;-81
2021/03/12 12:37:26;;;;;;;6.78;5.63;;;;;;;;;;5053808;28;20098;-81
2021/03/12 12:39:54;;;;;;;5.38;4.40;;;;;;;;;;5035002;28;20114;-81
2021/03/12 12:42:21;;;;;;;5.03;4.72;;;;;;;;;;5038530;28;20076;-81
2021/03/12 12:44:49;;;;;;;5.07;4.65;;;;;;;;;;5023104;28;20041;-81
2021/03/12 12:47:16;;;;;;;4.10;3.88;;;;;;;;;;5045032;28;20083;-78
2021/03/12 12:49:44;;;;;;;4.20;3.95;;;;;;;;;;5018186;28;20045;-78
2021/03/12 12:52:11;;;;;;;5.30;4.55;;;;;;;;;;5046251;28;20110;-78
2021/03/12 12:54:38;;;;;;;5.00;4.82;;;;;;;;;;5046546;28;20525;-78
2021/03/12 12:57:06;;;;;;;5.20;4.80;;;;;;;;;;5018610;28;20441;-78
2021/03/12 12:59:33;;;;;;;5.32;5.03;;;;;;;;;;5029486;28;20064;-78
2021/03/12 13:02:00;;;;;;;4.82;4.40;;;;;;;;;;5031111;28;20029;-78
2021/03/12 13:04:27;;;;;;;8.38;7.18;;;;;;;;;;5030460;28;20095;-78
2021/03/12 13:06:54;;;;;;;5.43;5.00;;;;;;;;;;5026874;28;20037;-78
2021/03/12 13:09:21;;;;;;;5.68;4.95;;;;;;;;;;5052253;28;20174;-78
2021/03/12 13:11:48;;;;;;;5.38;4.97;;;;;;;;;;5046583;28;20651;-78
2021/03/12 13:14:15;;;;;;;5.38;5.18;;;;;;;;;;5050616;28;20041;-78
2021/03/12 13:16:42;;;;;;;5.43;5.22;;;;;;;;;;5024967;28;20082;-78
2021/03/12 13:19:09;;;;;;;5.65;5.30;;;;;;;;;;5046676;28;20087;-78
2021/03/12 13:21:42;;;;;;;6.60;6.20;;;;;;;;;;5027723;28;20041;-78
2021/03/12 13:24:10;;;;;;;5.85;5.35;;;;;;;;;;5022116;28;20047;-78
2021/03/12 13:26:39;;;;;;;7.65;5.30;;;;;;;;;;5034924;28;20052;-78
2021/03/12 13:29:06;;;;;;;7.20;5.50;;;;;;;;;;5034106;28;20145;-78
2021/03/12 13:31:33;;;;;;;6.05;5.53;;;;;;;;;;5025864;28;20709;-78
2021/03/12 13:34:02;;;;;;;3.78;3.58;;;;;;;;;;5013854;28;20041;-78
2021/03/12 13:36:29;;;;;;;5.68;5.47;;;;;;;;;;5025993;28;20079;-78
2021/03/12 13:38:56;;;;;;;5.35;5.05;;;;;;;;;;5022955;28;20525;-78
2021/03/12 13:41:24;;;;;;;5.47;5.25;;;;;;;;;;5051779;28;20057;-78
2021/03/12 13:43:51;;;;;;;4.85;4.60;;;;;;;;;;5027090;28;20041;-78
2021/03/12 13:46:18;;;;;;;6.28;5.30;;;;;;;;;;5031405;28;20091;-78
2021/03/12 13:48:45;;;;;;;6.03;5.72;;;;;;;;;;5029541;28;20497;-78
2021/03/12 13:51:13;;;;;;;7.05;6.05;;;;;;;;;;5031264;28;20593;-78
2021/03/12 13:53:40;;;;;;;7.50;7.07;;;;;;;;;;5048834;28;20068;-78
2021/03/12 13:56:08;;;;;;;6.00;5.90;;;;;;;;;;5043065;28;20056;-80
2021/03/12 13:58:35;;;;;;;7.78;7.53;;;;;;;;;;5047101;28;20065;-80
2021/03/12 14:01:02;;;;;;;8.32;7.63;;;;;;;;;;5035573;28;20445;-78
2021/03/12 14:03:29;;;;;;;8.40;7.90;;;;;;;;;;5023124;28;20037;-78
2021/03/12 14:05:56;;;;;;;8.95;8.35;;;;;;;;;;5049615;28;20087;-78
2021/03/12 14:08:23;;;;;;;8.95;8.15;;;;;;;;;;5043676;28;20107;-78
2021/03/12 14:10:50;;;;;;;9.77;9.07;;;;;;;;;;5047042;28;20042;-78
2021/03/12 14:13:17;;;;;;;10.55;9.65;;;;;;;;;;5035925;28;20045;-78
2021/03/12 14:15:44;;;;;;;9.30;8.38;;;;;;;;;;5021458;28;20058;-78
2021/03/12 14:18:11;;;;;;;8.23;7.63;;;;;;;;;;5048223;28;20040;-78
2021/03/12 14:20:39;;;;;;;7.35;7.07;;;;;;;;;;5037790;28;20071;-78
2021/03/12 14:23:07;;;;;;;9.98;7.90;;;;;;;;;;5027755;28;20045;-78
2021/03/12 14:25:35;;;;;;;7.25;6.75;;;;;;;;;;5029691;28;20387;-78
2021/03/12 14:28:03;;;;;;;8.05;7.50;;;;;;;;;;5043495;28;20489;-78
2021/03/12 14:30:30;;;;;;;8.25;7.43;;;;;;;;;;5036110;28;20048;-78
2021/03/12 14:32:57;;;;;;;7.35;6.90;;;;;;;;;;5036455;28;20041;-78
2021/03/12 14:35:24;;;;;;;8.85;6.10;;;;;;;;;;5043069;28;20056;-78
2021/03/12 14:37:51;;;;;;;7.45;6.68;;;;;;;;;;5049308;28;20056;-78
2021/03/12 14:40:19;;;;;;;6.10;5.60;;;;;;;;;;5029829;28;20049;-80
2021/03/12 14:42:46;;;;;;;6.47;6.03;;;;;;;;;;5030906;28;20045;-78
2021/03/12 14:45:13;;;;;;;7.68;6.68;;;;;;;;;;5032218;28;20521;-78
2021/03/12 14:47:40;;;;;;;7.80;7.32;;;;;;;;;;5027188;28;20127;-78
2021/03/12 14:50:08;;;;;;;5.63;5.13;;;;;;;;;;5014057;28;20036;-78
2021/03/12 14:52:52;;;;;;;7.03;5.53;;;;;;;;;;5042484;28;20496;-78
2021/03/12 14:55:27;;;;;;;6.13;5.75;;;;;;;;;;5027664;28;20037;-78